Grand Junction Regional Airport
KGJT : now visible

Airfield :











YOU CAN JOIN US ON...

 
LOGIN :

Register | Disclaimer

   EN    FR    IT 

 









Legend :    VFR   Marginal VFR   IFR   Intensive IFR   Very Intensive IFR
Visi :
Ceiling :
>= 8 km
>= 3000ft
5 to 8 km
1000 to 3000 ft
1500m to 5 km
500 to 1000 ft
800 to 1500m
200 to 500 ft
< 800m
< 200 ft
Symbols :   Thunderstorms  Fog  Heavy snow  Heavy precipitations  Wind > 20 kt






- Airport Elevation : 4858 ft
- IATA code : GJT


KGJT - Grand Junction Regional

CURRENT METAR :
  • 240453Z 04005KT 10SM CLR 16/M09 A2991 RMK AO2 SLP067 T01611089

EXPIRED METARs :
  • 240353Z 00000KT 10SM CLR 17/M09 A2990 RMK AO2 SLP067 T01671089
  • 240253Z 31003KT 10SM CLR 21/M07 A2988 RMK AO2 SLP054 T02061072 53008
  • 240153Z 27012KT 10SM CLR 25/M08 A2985 RMK AO2 SLP045 T02501078
  • 240053Z 27013KT 10SM CLR 27/M08 A2985 RMK AO2 SLP044 T02721083

TAF KGJT
Valid from the 24 at 00:00 until the 25 at 00:00 UTC


232342Z 2400/2424 27010G21KT P6SM FEW140 FEW150
FM240200 24009KT P6SM FEW140 SCT250
FM240400 11008KT P6SM FEW140 SCT250
FM241700 27008KT P6SM FEW130 FEW250
FM242000 27012G20KT P6SM FEW110 FEW250
KZDV FIR / North America



MET'MAP, your aeronautical weather chart ! - Copyright ORBIFLY December 2007 - Disclaimer

ORBIFLY MET'MAP TEAM :

Programming & Development : Alexandra Zaïnal
Original concept : Baudouin d'Aumeries
Technical & hardware support : Manuel Goepfert
Assistance : Marc-Olivier Méhu




SOURCES & CREDITS :

   NOAA       Earth
Advisory